createdAt,value
2023-05-03T00:00:09.241Z,5.13
2023-05-03T00:02:40.078Z,5.03
2023-05-03T00:05:12.217Z,5.95
2023-05-03T00:07:40.213Z,6.13
2023-05-03T00:10:07.464Z,5.35
2023-05-03T00:12:33.804Z,5.65
2023-05-03T00:15:00.188Z,5.20
2023-05-03T00:17:27.036Z,5.00
2023-05-03T00:19:55.621Z,5.65
2023-05-03T00:22:22.890Z,6.03
2023-05-03T00:24:51.037Z,5.47
2023-05-03T00:27:18.167Z,6.05
2023-05-03T00:29:45.777Z,5.50
2023-05-03T00:32:12.285Z,5.45
2023-05-03T00:34:38.848Z,4.97
2023-05-03T00:37:05.700Z,5.90
2023-05-03T00:39:32.162Z,5.00
2023-05-03T00:41:59.647Z,5.60
2023-05-03T00:44:26.119Z,5.43
2023-05-03T00:46:52.744Z,5.53
2023-05-03T00:49:19.815Z,5.30
2023-05-03T00:51:46.303Z,5.07
2023-05-03T00:54:12.832Z,4.82
2023-05-03T00:56:48.294Z,4.82
2023-05-03T00:59:18.314Z,5.65
2023-05-03T01:01:48.400Z,5.25
2023-05-03T01:04:14.861Z,5.43
2023-05-03T01:06:48.944Z,5.20
2023-05-03T01:12:09.005Z,5.05
2023-05-03T01:14:44.269Z,4.82
2023-05-03T01:17:14.454Z,5.50
2023-05-03T01:19:52.036Z,5.70
2023-05-03T01:22:38.268Z,5.25
2023-05-03T01:25:12.866Z,5.78
2023-05-03T01:27:40.564Z,6.00
2023-05-03T01:30:11.757Z,5.80
2023-05-03T01:32:46.828Z,5.45
2023-05-03T01:35:37.428Z,5.45
2023-05-03T01:38:04.708Z,6.30
2023-05-03T01:40:32.345Z,5.80
2023-05-03T01:42:59.177Z,5.70
2023-05-03T01:45:26.427Z,5.80
2023-05-03T01:47:52.901Z,5.55
2023-05-03T01:50:19.359Z,5.63
2023-05-03T01:52:46.036Z,5.40
2023-05-03T01:55:12.401Z,6.40
2023-05-03T01:57:38.747Z,5.88
2023-05-03T02:00:06.836Z,5.90
2023-05-03T02:02:33.221Z,4.97
2023-05-03T02:04:59.637Z,5.20
2023-05-03T02:07:26.169Z,5.38
2023-05-03T02:09:52.618Z,5.00
2023-05-03T02:12:18.973Z,5.05
2023-05-03T02:14:45.386Z,5.47
2023-05-03T02:17:11.703Z,5.57
2023-05-03T02:19:38.081Z,5.28
2023-05-03T02:22:04.418Z,5.65
2023-05-03T02:24:31.173Z,5.50
2023-05-03T02:26:57.781Z,5.43
2023-05-03T02:29:24.162Z,5.68
2023-05-03T02:31:50.760Z,5.40
2023-05-03T02:34:17.101Z,5.80
2023-05-03T02:36:43.423Z,5.90
2023-05-03T02:39:10.573Z,5.28
2023-05-03T02:41:37.168Z,5.45
2023-05-03T02:44:03.525Z,5.72
2023-05-03T02:46:29.946Z,5.78
2023-05-03T02:48:56.380Z,5.75
2023-05-03T02:51:22.786Z,5.63
2023-05-03T02:53:49.368Z,5.68
2023-05-03T02:56:15.769Z,5.72
2023-05-03T02:58:42.181Z,5.80
2023-05-03T03:01:08.546Z,5.38
2023-05-03T03:03:35.191Z,5.82
2023-05-03T03:06:01.978Z,5.55
2023-05-03T03:08:28.450Z,5.93
2023-05-03T03:10:54.820Z,5.30
2023-05-03T03:13:21.195Z,5.65
2023-05-03T03:15:47.586Z,5.07
2023-05-03T03:18:14.022Z,5.50
2023-05-03T03:20:40.593Z,5.55
2023-05-03T03:23:07.155Z,6.25
2023-05-03T03:25:33.597Z,5.75
2023-05-03T03:28:00.740Z,5.78
2023-05-03T03:30:27.181Z,5.97
2023-05-03T03:32:53.549Z,5.72
2023-05-03T03:35:19.933Z,5.75
2023-05-03T03:37:46.287Z,5.70
2023-05-03T03:40:12.900Z,5.68
2023-05-03T03:42:40.002Z,5.70
2023-05-03T03:45:06.774Z,6.15
2023-05-03T03:47:33.210Z,5.97
2023-05-03T03:50:02.663Z,5.55
2023-05-03T03:52:29.703Z,5.80
2023-05-03T03:54:56.553Z,5.78
2023-05-03T03:57:25.033Z,5.63
2023-05-03T03:59:51.375Z,5.90
2023-05-03T04:02:17.726Z,5.85
2023-05-03T04:04:44.241Z,5.85
2023-05-03T04:07:11.499Z,6.03
2023-05-03T04:09:37.872Z,6.03
2023-05-03T04:12:04.689Z,6.03
2023-05-03T04:14:31.122Z,6.43
2023-05-03T04:16:57.534Z,6.68
2023-05-03T04:19:25.917Z,6.15
2023-05-03T04:21:52.413Z,5.70
2023-05-03T04:24:18.968Z,6.30
2023-05-03T04:26:45.465Z,6.28
2023-05-03T04:29:12.359Z,5.90
2023-05-03T04:31:39.641Z,5.85
2023-05-03T04:34:06.092Z,5.38
2023-05-03T04:36:32.838Z,5.45
2023-05-03T04:38:59.217Z,5.63
2023-05-03T04:41:25.594Z,6.15
2023-05-03T04:43:53.354Z,5.85
2023-05-03T04:46:20.305Z,5.60
2023-05-03T04:48:46.709Z,5.28
2023-05-03T04:51:13.346Z,5.32
2023-05-03T04:53:40.261Z,5.40
2023-05-03T04:56:07.510Z,5.80
2023-05-03T04:58:33.845Z,5.70
2023-05-03T05:01:00.453Z,5.65
2023-05-03T05:03:26.984Z,6.30
2023-05-03T05:05:53.466Z,5.72
2023-05-03T05:08:20.842Z,5.60
2023-05-03T05:10:47.248Z,5.35
2023-05-03T05:13:14.680Z,5.43
2023-05-03T05:15:41.067Z,5.53
2023-05-03T05:18:07.447Z,5.03
2023-05-03T05:20:33.901Z,6.15
2023-05-03T05:23:00.341Z,8.10
2023-05-03T05:25:27.294Z,5.78
2023-05-03T05:27:53.668Z,5.00
2023-05-03T05:30:20.015Z,5.00
2023-05-03T05:32:46.608Z,4.88
2023-05-03T05:35:13.074Z,5.07
2023-05-03T05:37:39.475Z,4.97
2023-05-03T05:40:07.718Z,5.60
2023-05-03T05:42:34.083Z,4.72
2023-05-03T05:45:00.707Z,4.75
2023-05-03T05:47:27.186Z,4.90
2023-05-03T05:49:53.685Z,4.90
2023-05-03T05:52:19.996Z,5.25
2023-05-03T05:54:46.369Z,4.75
2023-05-03T05:57:13.744Z,5.38
2023-05-03T05:59:40.823Z,5.20
2023-05-03T06:02:16.554Z,4.70
2023-05-03T06:04:43.948Z,4.50
2023-05-03T06:07:10.293Z,4.13
2023-05-03T06:09:36.630Z,4.45
2023-05-03T06:12:03.064Z,4.55
2023-05-03T06:14:29.389Z,4.60
2023-05-03T06:16:56.053Z,4.40
2023-05-03T06:19:24.339Z,4.82
2023-05-03T06:21:50.758Z,4.57
2023-05-03T06:24:21.033Z,4.97
2023-05-03T06:26:50.853Z,4.65
2023-05-03T06:29:17.254Z,4.60
2023-05-03T06:31:43.692Z,4.60
2023-05-03T06:34:10.523Z,4.50
2023-05-03T06:36:37.732Z,4.80
2023-05-03T06:39:04.526Z,4.63
2023-05-03T06:41:32.771Z,3.80
2023-05-03T06:43:59.194Z,4.40
2023-05-03T06:46:27.469Z,4.20
2023-05-03T06:48:56.327Z,4.18
2023-05-03T06:51:30.124Z,4.32
2023-05-03T06:53:57.673Z,5.05
2023-05-03T06:56:24.148Z,4.80
2023-05-03T06:58:50.553Z,4.78
2023-05-03T07:01:19.048Z,4.38
2023-05-03T07:03:45.778Z,3.97
2023-05-03T07:06:12.266Z,4.18
2023-05-03T07:08:38.639Z,4.40
2023-05-03T07:11:04.992Z,4.70
2023-05-03T07:13:31.327Z,5.15
2023-05-03T07:15:57.810Z,5.32
2023-05-03T07:18:24.236Z,5.22
2023-05-03T07:20:51.139Z,5.65
2023-05-03T07:23:17.480Z,5.43
2023-05-03T07:25:43.940Z,5.30
2023-05-03T07:28:10.291Z,5.00
2023-05-03T07:30:36.708Z,5.18
2023-05-03T07:33:03.326Z,5.28
2023-05-03T07:35:30.501Z,5.45
2023-05-03T07:37:56.966Z,4.70
2023-05-03T07:40:23.405Z,4.88
2023-05-03T07:42:50.001Z,4.85
2023-05-03T07:45:16.459Z,5.32
2023-05-03T07:47:42.958Z,4.95
2023-05-03T07:50:09.590Z,5.28
2023-05-03T07:52:37.221Z,4.95
2023-05-03T07:55:04.006Z,5.53
2023-05-03T07:57:30.981Z,4.88
2023-05-03T07:59:57.377Z,4.55
2023-05-03T08:02:24.108Z,5.47
2023-05-03T08:04:50.685Z,5.90
2023-05-03T08:07:17.307Z,5.53
2023-05-03T08:09:43.741Z,4.70
2023-05-03T08:12:10.133Z,5.18
2023-05-03T08:14:37.763Z,4.88
2023-05-03T08:17:06.735Z,5.22
2023-05-03T08:19:35.945Z,4.70
2023-05-03T08:22:03.208Z,5.30
2023-05-03T08:24:29.710Z,5.53
2023-05-03T08:26:56.157Z,5.55
2023-05-03T08:29:22.639Z,5.78
2023-05-03T08:31:49.245Z,5.65
2023-05-03T08:34:15.723Z,5.22
2023-05-03T08:36:42.095Z,5.15
2023-05-03T08:39:10.221Z,4.90
2023-05-03T08:41:36.613Z,5.28
2023-05-03T08:44:05.488Z,4.57
2023-05-03T08:46:31.924Z,4.70
2023-05-03T08:48:58.903Z,4.80
2023-05-03T08:51:25.428Z,5.40
2023-05-03T08:53:51.955Z,4.93
2023-05-03T08:56:33.815Z,4.95
2023-05-03T08:59:07.355Z,5.38
2023-05-03T09:01:35.804Z,5.00
2023-05-03T09:04:03.273Z,5.53
2023-05-03T09:06:30.103Z,4.43
2023-05-03T09:08:56.540Z,5.25
2023-05-03T09:11:24.513Z,5.28
2023-05-03T09:13:52.254Z,5.28
2023-05-03T09:16:27.393Z,6.10
2023-05-03T09:19:01.076Z,4.90
2023-05-03T09:21:31.432Z,4.25
2023-05-03T09:23:58.371Z,4.82
2023-05-03T09:26:31.938Z,5.45
2023-05-03T09:28:59.553Z,4.88
2023-05-03T09:31:26.018Z,5.20
2023-05-03T09:33:53.487Z,4.80
2023-05-03T09:36:19.940Z,5.05
2023-05-03T09:38:46.417Z,5.00
2023-05-03T09:41:12.955Z,5.25
2023-05-03T09:43:50.199Z,5.07
2023-05-03T09:46:16.698Z,5.28
2023-05-03T09:48:43.549Z,4.90
2023-05-03T09:51:11.386Z,5.25
2023-05-03T09:53:39.341Z,4.47
2023-05-03T09:56:12.956Z,5.00
2023-05-03T09:58:40.132Z,4.75
2023-05-03T10:01:07.475Z,4.65
2023-05-03T10:03:43.779Z,4.60
2023-05-03T10:06:32.552Z,5.78
2023-05-03T10:09:05.765Z,5.22
2023-05-03T10:11:42.403Z,5.30
2023-05-03T10:14:09.073Z,4.80
2023-05-03T10:16:39.294Z,4.68
2023-05-03T10:19:16.056Z,4.88
2023-05-03T10:21:51.697Z,5.00
2023-05-03T10:24:21.205Z,5.40
2023-05-03T10:26:50.430Z,4.88
2023-05-03T10:29:34.656Z,5.40
2023-05-03T10:32:02.130Z,5.88
2023-05-03T10:34:35.883Z,5.55
2023-05-03T10:37:05.526Z,4.93
2023-05-03T10:39:32.131Z,4.30
2023-05-03T10:42:03.347Z,5.18
2023-05-03T10:44:39.830Z,4.75
2023-05-03T10:47:22.543Z,4.80
2023-05-03T10:50:16.755Z,4.38
2023-05-03T10:52:43.041Z,4.27
2023-05-03T10:55:13.616Z,4.10
2023-05-03T10:57:42.727Z,4.30
2023-05-03T11:00:19.050Z,4.20
2023-05-03T11:03:04.127Z,3.17
2023-05-03T11:05:31.655Z,4.50
2023-05-03T11:08:19.554Z,4.95
2023-05-03T11:10:47.391Z,4.07
2023-05-03T11:13:14.398Z,4.25
2023-05-03T11:15:41.295Z,3.90
2023-05-03T11:18:09.661Z,3.47
2023-05-03T11:20:36.276Z,3.75
2023-05-03T11:23:03.335Z,3.60
2023-05-03T11:25:29.832Z,4.15
2023-05-03T11:27:56.778Z,4.25
2023-05-03T11:30:23.109Z,3.60
2023-05-03T11:32:49.753Z,3.67
2023-05-03T11:35:18.046Z,3.25
2023-05-03T11:37:45.119Z,3.92
2023-05-03T11:40:18.817Z,3.83
2023-05-03T11:42:55.900Z,4.03
2023-05-03T11:45:24.659Z,3.70
2023-05-03T11:47:51.965Z,3.22
2023-05-03T11:50:19.055Z,3.22
2023-05-03T11:52:45.806Z,3.25
2023-05-03T11:55:12.253Z,3.30
2023-05-03T11:57:38.981Z,3.50
2023-05-03T12:00:17.111Z,3.70
2023-05-03T12:02:45.079Z,3.60
2023-05-03T12:05:12.601Z,3.00
2023-05-03T12:07:39.659Z,3.10
2023-05-03T12:13:00.529Z,2.97
2023-05-03T12:15:34.037Z,2.67
2023-05-03T12:18:09.733Z,2.55
2023-05-03T12:23:09.906Z,3.33
2023-05-03T12:25:39.866Z,2.95
2023-05-03T12:28:19.653Z,3.65
2023-05-03T12:30:46.902Z,3.35
2023-05-03T12:33:16.076Z,3.35
2023-05-03T12:35:46.674Z,3.28
2023-05-03T12:38:16.689Z,3.20
2023-05-03T12:40:45.799Z,2.47
2023-05-03T12:43:12.531Z,2.97
2023-05-03T12:45:40.977Z,3.03
2023-05-03T12:48:08.743Z,2.83
2023-05-03T12:50:38.698Z,2.50
2023-05-03T12:53:09.323Z,2.65
2023-05-03T12:55:41.962Z,3.00
2023-05-03T13:00:48.787Z,2.90
2023-05-03T13:03:32.411Z,2.45
2023-05-03T13:08:34.123Z,2.42
2023-05-03T13:11:01.831Z,3.10
2023-05-03T13:13:28.508Z,2.72
2023-05-03T13:15:55.294Z,3.10
2023-05-03T13:18:22.799Z,3.03
2023-05-03T13:20:50.388Z,3.20
2023-05-03T13:23:16.753Z,3.00
2023-05-03T13:25:44.310Z,2.88
2023-05-03T13:28:10.760Z,2.72
2023-05-03T13:30:37.173Z,3.00
2023-05-03T13:33:03.619Z,3.05
2023-05-03T13:35:30.937Z,3.10
2023-05-03T13:37:57.757Z,2.92
2023-05-03T13:40:24.568Z,3.60
2023-05-03T13:42:51.124Z,2.72
2023-05-03T13:45:18.373Z,3.05
2023-05-03T13:50:14.081Z,2.70
2023-05-03T13:52:41.845Z,3.17
2023-05-03T13:55:08.565Z,2.75
2023-05-03T13:57:34.988Z,2.83
2023-05-03T14:00:01.721Z,3.20
2023-05-03T14:02:28.421Z,3.42
2023-05-03T14:04:54.890Z,3.20
2023-05-03T14:07:21.365Z,3.75
2023-05-03T14:09:47.746Z,3.15
2023-05-03T14:12:14.173Z,3.40
2023-05-03T14:14:40.550Z,2.50
2023-05-03T14:17:07.011Z,2.80
2023-05-03T14:19:36.950Z,2.88
2023-05-03T14:22:03.549Z,3.15
2023-05-03T14:24:29.892Z,2.78
2023-05-03T14:26:56.251Z,3.13
2023-05-03T14:29:23.508Z,3.10
2023-05-03T14:31:49.966Z,2.80
2023-05-03T14:34:16.739Z,2.20
2023-05-03T14:36:43.997Z,2.67
2023-05-03T14:39:14.311Z,2.55
2023-05-03T14:41:40.966Z,2.75
2023-05-03T14:44:07.569Z,3.40
2023-05-03T14:46:35.042Z,2.58
2023-05-03T14:49:01.624Z,2.90
2023-05-03T14:51:28.153Z,2.33
2023-05-03T14:53:55.077Z,2.90
2023-05-03T14:56:21.457Z,2.42
2023-05-03T14:58:47.933Z,2.90
2023-05-03T15:01:19.153Z,2.92
2023-05-03T15:03:45.858Z,2.83
2023-05-03T15:06:12.248Z,2.53
2023-05-03T15:08:41.572Z,2.30
2023-05-03T15:11:08.128Z,2.75
2023-05-03T15:13:34.949Z,2.60
2023-05-03T15:16:01.499Z,2.55
2023-05-03T15:18:27.979Z,3.17
2023-05-03T15:20:54.415Z,3.60
2023-05-03T15:23:20.786Z,2.70
2023-05-03T15:25:47.160Z,2.40
2023-05-03T15:28:13.533Z,2.90
2023-05-03T15:30:39.921Z,2.78
2023-05-03T15:33:06.459Z,2.63
2023-05-03T15:35:32.830Z,3.20
2023-05-03T15:37:59.392Z,3.08
2023-05-03T15:40:27.033Z,3.05
2023-05-03T15:42:53.664Z,3.47
2023-05-03T15:45:22.885Z,2.50
2023-05-03T15:47:49.416Z,3.28
2023-05-03T15:50:15.837Z,2.78
2023-05-03T15:52:42.415Z,2.25
2023-05-03T15:55:09.566Z,2.85
2023-05-03T15:57:36.160Z,2.40
2023-05-03T16:00:06.351Z,3.00
2023-05-03T16:02:33.059Z,2.53
2023-05-03T16:04:59.559Z,2.22
2023-05-03T16:07:26.873Z,1.90
2023-05-03T16:09:53.281Z,2.50
2023-05-03T16:12:19.694Z,2.50
2023-05-03T16:14:46.528Z,2.30
2023-05-03T16:17:13.043Z,2.22
2023-05-03T16:19:39.456Z,2.40
2023-05-03T16:22:05.952Z,2.58
2023-05-03T16:24:34.139Z,2.40
2023-05-03T16:27:01.850Z,2.08
2023-05-03T16:29:28.694Z,1.95
2023-05-03T16:31:55.990Z,2.00
2023-05-03T16:34:23.230Z,1.70
2023-05-03T16:36:51.436Z,2.05
2023-05-03T16:39:17.884Z,1.52
2023-05-03T16:41:44.278Z,2.00
2023-05-03T16:44:10.926Z,2.05
2023-05-03T16:46:39.134Z,2.38
2023-05-03T16:49:06.226Z,2.15
2023-05-03T16:51:33.604Z,1.90
2023-05-03T16:54:01.778Z,2.03
2023-05-03T16:56:30.780Z,2.20
2023-05-03T16:58:57.207Z,2.25
2023-05-03T17:01:23.670Z,2.03
2023-05-03T17:03:50.424Z,2.35
2023-05-03T17:06:18.215Z,1.67
2023-05-03T17:08:45.044Z,1.88
2023-05-03T17:11:13.465Z,1.60
2023-05-03T17:13:40.192Z,1.73
2023-05-03T17:16:08.766Z,1.50
2023-05-03T17:18:36.691Z,2.17
2023-05-03T17:21:04.736Z,1.88
2023-05-03T17:23:35.688Z,1.73
2023-05-03T17:26:03.597Z,1.50
2023-05-03T17:28:30.646Z,1.65
2023-05-03T17:30:57.376Z,1.65
2023-05-03T17:33:23.944Z,1.83
2023-05-03T17:35:50.370Z,1.77
2023-05-03T17:38:16.731Z,1.50
2023-05-03T17:40:44.411Z,1.83
2023-05-03T17:43:12.227Z,2.00
2023-05-03T17:45:39.661Z,2.03
2023-05-03T17:48:06.522Z,2.10
2023-05-03T17:50:32.908Z,1.52
2023-05-03T17:52:59.272Z,1.83
2023-05-03T17:55:26.259Z,1.65
2023-05-03T17:57:52.874Z,1.73
2023-05-03T18:00:21.147Z,1.88
2023-05-03T18:02:47.973Z,2.00
2023-05-03T18:05:16.267Z,2.20
2023-05-03T18:07:43.136Z,2.03
2023-05-03T18:10:14.309Z,2.20
2023-05-03T18:12:40.943Z,1.70
2023-05-03T18:15:10.664Z,2.03
2023-05-03T18:17:37.165Z,2.00
2023-05-03T18:20:06.091Z,2.35
2023-05-03T18:22:34.452Z,3.45
2023-05-03T18:25:02.256Z,1.98
2023-05-03T18:27:28.777Z,2.53
2023-05-03T18:29:55.148Z,1.55
2023-05-03T18:32:23.485Z,1.60
2023-05-03T18:34:49.896Z,1.83
2023-05-03T18:37:16.398Z,1.50
2023-05-03T18:39:42.763Z,1.60
2023-05-03T18:42:10.053Z,1.52
2023-05-03T18:44:38.290Z,1.58
2023-05-03T18:47:04.729Z,1.50
2023-05-03T18:49:31.132Z,1.73
2023-05-03T18:51:59.443Z,1.65
2023-05-03T18:54:25.864Z,1.60
2023-05-03T18:56:52.991Z,1.23
2023-05-03T18:59:20.237Z,1.40
2023-05-03T19:01:46.658Z,1.73
2023-05-03T19:04:14.657Z,1.70
2023-05-03T19:06:41.151Z,1.50
2023-05-03T19:09:13.474Z,1.88
2023-05-03T19:11:43.937Z,1.58
2023-05-03T19:14:10.398Z,1.52
2023-05-03T19:16:36.908Z,1.50
2023-05-03T19:19:11.320Z,1.70
2023-05-03T19:21:42.077Z,1.50
2023-05-03T19:24:14.242Z,1.52
2023-05-03T19:26:41.123Z,1.45
2023-05-03T19:29:09.362Z,1.63
2023-05-03T19:31:36.188Z,1.80
2023-05-03T19:34:02.866Z,1.60
2023-05-03T19:36:29.298Z,1.95
2023-05-03T19:38:55.758Z,1.70
2023-05-03T19:41:22.172Z,1.80
2023-05-03T19:43:48.509Z,1.77
2023-05-03T19:46:18.146Z,1.73
2023-05-03T19:48:45.047Z,1.60
2023-05-03T19:51:15.544Z,1.65
2023-05-03T19:53:42.373Z,1.60
2023-05-03T19:56:13.343Z,1.90
2023-05-03T19:58:40.017Z,1.60
2023-05-03T20:01:06.951Z,1.63
2023-05-03T20:03:33.491Z,1.60
2023-05-03T20:05:59.849Z,2.53
2023-05-03T20:08:26.237Z,1.63
2023-05-03T20:10:55.200Z,1.63
2023-05-03T20:13:22.415Z,1.70
2023-05-03T20:15:49.328Z,2.00
2023-05-03T20:18:17.499Z,1.80
2023-05-03T20:20:43.852Z,1.65
2023-05-03T20:23:11.752Z,1.83
2023-05-03T20:25:38.486Z,1.80
2023-05-03T20:28:04.982Z,1.88
2023-05-03T20:30:32.079Z,1.83
2023-05-03T20:32:58.562Z,1.80
2023-05-03T20:35:25.256Z,1.80
2023-05-03T20:37:51.653Z,1.67
2023-05-03T20:40:18.033Z,2.10
2023-05-03T20:42:44.437Z,1.30
2023-05-03T20:45:11.015Z,1.60
2023-05-03T20:47:37.337Z,1.70
2023-05-03T20:50:04.086Z,1.80
2023-05-03T20:52:31.108Z,1.80
2023-05-03T20:54:57.424Z,1.70
2023-05-03T20:57:23.764Z,2.05
2023-05-03T20:59:50.108Z,1.60
2023-05-03T21:02:16.602Z,1.90
2023-05-03T21:04:43.174Z,1.92
2023-05-03T21:07:10.162Z,1.67
2023-05-03T21:09:36.535Z,1.52
2023-05-03T21:12:04.018Z,1.83
2023-05-03T21:14:30.551Z,1.65
2023-05-03T21:16:56.993Z,1.75
2023-05-03T21:19:23.408Z,1.88
2023-05-03T21:21:49.819Z,1.70
2023-05-03T21:24:16.243Z,1.55
2023-05-03T21:26:42.804Z,1.80
2023-05-03T21:29:09.175Z,2.30
2023-05-03T21:31:35.618Z,1.92
2023-05-03T21:34:03.949Z,1.75
2023-05-03T21:36:30.379Z,1.85
2023-05-03T21:38:56.758Z,2.17
2023-05-03T21:41:23.518Z,1.90
2023-05-03T21:43:49.919Z,1.92
2023-05-03T21:46:16.370Z,2.20
2023-05-03T21:48:45.522Z,1.67
2023-05-03T21:51:21.394Z,2.10
2023-05-03T21:53:50.973Z,1.88
2023-05-03T21:56:17.320Z,2.20
2023-05-03T21:58:46.606Z,2.20
2023-05-03T22:01:16.569Z,2.47
2023-05-03T22:03:43.181Z,2.35
2023-05-03T22:06:09.641Z,2.15
2023-05-03T22:08:36.363Z,2.00
2023-05-03T22:11:08.872Z,2.08
2023-05-03T22:13:46.070Z,2.00
2023-05-03T22:16:21.318Z,2.00
2023-05-03T22:18:47.944Z,1.70
2023-05-03T22:21:14.324Z,1.98
2023-05-03T22:23:40.716Z,1.85
2023-05-03T22:26:07.284Z,2.05
2023-05-03T22:28:33.751Z,2.10
2023-05-03T22:31:00.255Z,2.10
2023-05-03T22:33:26.707Z,2.10
2023-05-03T22:35:53.483Z,1.80
2023-05-03T22:38:19.809Z,1.83
2023-05-03T22:40:46.299Z,1.90
2023-05-03T22:43:12.652Z,1.80
2023-05-03T22:45:39.278Z,2.00
2023-05-03T22:48:05.789Z,1.90
2023-05-03T22:50:32.197Z,2.17
2023-05-03T22:52:58.535Z,2.40
2023-05-03T22:55:24.929Z,2.10
2023-05-03T22:57:51.523Z,1.92
2023-05-03T23:00:19.944Z,2.58
2023-05-03T23:02:46.653Z,2.00
2023-05-03T23:05:13.584Z,2.08
2023-05-03T23:07:41.551Z,2.10
2023-05-03T23:10:08.772Z,2.15
2023-05-03T23:12:35.322Z,2.60
2023-05-03T23:15:01.862Z,2.10
2023-05-03T23:17:28.417Z,2.17
2023-05-03T23:19:54.846Z,2.50
2023-05-03T23:22:21.264Z,1.92
2023-05-03T23:24:47.642Z,2.33
2023-05-03T23:27:14.031Z,2.30
2023-05-03T23:29:40.841Z,2.05
2023-05-03T23:32:07.853Z,2.13
2023-05-03T23:34:34.765Z,1.88
2023-05-03T23:37:01.214Z,2.25
2023-05-03T23:39:27.600Z,1.70
2023-05-03T23:41:53.952Z,1.80
2023-05-03T23:44:20.972Z,1.90
2023-05-03T23:46:47.343Z,2.10
2023-05-03T23:49:13.700Z,1.92
2023-05-03T23:51:40.133Z,2.22
2023-05-03T23:54:06.474Z,2.30
2023-05-03T23:56:32.845Z,2.33
2023-05-03T23:58:59.906Z,2.20
